7IL3 weather

Lutz Restricted Landing Area
Green Valley, Illinois, United States

Public forecast

Using degrees Fahrenheit for public forecast. Weather courtesy of forecast.io.

Closest aviation weather report (METAR) to Lutz Restricted Landing Area

Closest report is General Wayne A. Downing Peoria International Airport, 14.8 nm (27.3 km) NNW. Retrieved 2020/05/29 03:14 UTC (29 minutes ago):

KPIA 290314Z 32008KT 10SM SCT013 BKN022 19/17 A2992

Closest aviation forecast (TAF) to Lutz Restricted Landing Area

Closest forecast is General Wayne A. Downing Peoria International Airport, 14.8 nm (27.3 km) NNW. Retrieved 2020-05-29 00:22 UTC (3 hours ago):

TAF KPIA 282320Z 2900/2924 29007KT 6SM -SHRA VCTS OVC015CB FM290200 33007KT P6SM VCSH BKN035 FM290800 34007KT P6SM BKN020 FM291300 33013G20KT P6SM FEW040 SCT250